sensor_id;sensor_type;location;lat;lon;timestamp;temperature;humidity
52965;DHT22;42923;53.220;6.528;2022-07-29T00:00:37;14.50;99.90
52965;DHT22;42923;53.220;6.528;2022-07-29T00:03:03;14.60;99.90
52965;DHT22;42923;53.220;6.528;2022-07-29T00:05:28;14.50;99.90
52965;DHT22;42923;53.220;6.528;2022-07-29T00:07:54;14.50;99.90
52965;DHT22;42923;53.220;6.528;2022-07-29T00:10:20;14.50;99.90
52965;DHT22;42923;53.220;6.528;2022-07-29T00:12:46;14.60;99.90
52965;DHT22;42923;53.220;6.528;2022-07-29T00:15:12;14.50;99.90
52965;DHT22;42923;53.220;6.528;2022-07-29T00:17:38;14.50;99.90
52965;DHT22;42923;53.220;6.528;2022-07-29T00:20:04;14.80;99.90
52965;DHT22;42923;53.220;6.528;2022-07-29T00:22:30;14.50;99.90
52965;DHT22;42923;53.220;6.528;2022-07-29T00:24:56;14.60;99.90
52965;DHT22;42923;53.220;6.528;2022-07-29T00:27:21;14.60;99.90
52965;DHT22;42923;53.220;6.528;2022-07-29T00:29:47;14.60;99.90
52965;DHT22;42923;53.220;6.528;2022-07-29T00:32:13;14.60;99.90
52965;DHT22;42923;53.220;6.528;2022-07-29T00:34:39;14.60;99.90
52965;DHT22;42923;53.220;6.528;2022-07-29T00:37:24;14.60;99.90
52965;DHT22;42923;53.220;6.528;2022-07-29T00:39:49;14.50;99.90
52965;DHT22;42923;53.220;6.528;2022-07-29T00:42:16;14.60;99.90
52965;DHT22;42923;53.220;6.528;2022-07-29T00:44:42;14.60;99.90
52965;DHT22;42923;53.220;6.528;2022-07-29T00:47:09;14.60;99.90
52965;DHT22;42923;53.220;6.528;2022-07-29T00:49:35;14.60;99.90
52965;DHT22;42923;53.220;6.528;2022-07-29T00:52:06;14.60;99.90
52965;DHT22;42923;53.220;6.528;2022-07-29T00:54:33;14.60;99.90
52965;DHT22;42923;53.220;6.528;2022-07-29T00:56:59;14.60;99.90
52965;DHT22;42923;53.220;6.528;2022-07-29T00:59:26;14.60;99.90
52965;DHT22;42923;53.220;6.528;2022-07-29T01:01:53;14.70;99.90
52965;DHT22;42923;53.220;6.528;2022-07-29T01:04:19;14.70;99.90
52965;DHT22;42923;53.220;6.528;2022-07-29T01:06:46;14.70;99.90
52965;DHT22;42923;53.220;6.528;2022-07-29T01:09:13;14.70;99.90
52965;DHT22;42923;53.220;6.528;2022-07-29T01:11:39;14.70;99.90
52965;DHT22;42923;53.220;6.528;2022-07-29T01:14:06;14.80;99.90
52965;DHT22;42923;53.220;6.528;2022-07-29T01:19:47;14.70;99.90
52965;DHT22;42923;53.220;6.528;2022-07-29T01:22:38;14.70;99.90
52965;DHT22;42923;53.220;6.528;2022-07-29T01:30:36;14.70;99.90
52965;DHT22;42923;53.220;6.528;2022-07-29T01:33:11;15.00;99.90
52965;DHT22;42923;53.220;6.528;2022-07-29T01:35:59;14.70;99.90
52965;DHT22;42923;53.220;6.528;2022-07-29T01:38:28;14.70;99.90
52965;DHT22;42923;53.220;6.528;2022-07-29T01:41:02;14.70;99.90
52965;DHT22;42923;53.220;6.528;2022-07-29T01:43:54;14.70;99.90
52965;DHT22;42923;53.220;6.528;2022-07-29T01:46:34;14.90;99.90
52965;DHT22;42923;53.220;6.528;2022-07-29T01:49:24;14.70;99.90
52965;DHT22;42923;53.220;6.528;2022-07-29T01:51:54;14.70;99.90
52965;DHT22;42923;53.220;6.528;2022-07-29T01:54:42;14.70;99.90
52965;DHT22;42923;53.220;6.528;2022-07-29T01:57:12;15.10;99.90
52965;DHT22;42923;53.220;6.528;2022-07-29T01:59:39;14.70;99.90
52965;DHT22;42923;53.220;6.528;2022-07-29T02:02:08;14.70;99.90
52965;DHT22;42923;53.220;6.528;2022-07-29T02:04:36;14.70;99.90
52965;DHT22;42923;53.220;6.528;2022-07-29T02:07:05;14.80;99.90
52965;DHT22;42923;53.220;6.528;2022-07-29T02:09:34;14.90;99.90
52965;DHT22;42923;53.220;6.528;2022-07-29T02:12:02;14.80;99.90
52965;DHT22;42923;53.220;6.528;2022-07-29T02:14:33;14.80;99.90
52965;DHT22;42923;53.220;6.528;2022-07-29T02:17:00;14.80;99.90
52965;DHT22;42923;53.220;6.528;2022-07-29T02:19:27;14.80;99.90
52965;DHT22;42923;53.220;6.528;2022-07-29T02:21:56;14.80;99.90
52965;DHT22;42923;53.220;6.528;2022-07-29T02:24:24;14.80;99.90
52965;DHT22;42923;53.220;6.528;2022-07-29T02:26:53;14.80;99.90
52965;DHT22;42923;53.220;6.528;2022-07-29T02:29:25;14.80;99.90
52965;DHT22;42923;53.220;6.528;2022-07-29T02:31:52;14.80;99.90
52965;DHT22;42923;53.220;6.528;2022-07-29T02:34:19;14.80;99.90
52965;DHT22;42923;53.220;6.528;2022-07-29T02:36:46;14.90;99.90
52965;DHT22;42923;53.220;6.528;2022-07-29T02:39:15;14.90;99.90
52965;DHT22;42923;53.220;6.528;2022-07-29T02:41:47;14.90;99.90
52965;DHT22;42923;53.220;6.528;2022-07-29T02:44:21;14.90;99.90
52965;DHT22;42923;53.220;6.528;2022-07-29T02:47:02;14.90;99.90
52965;DHT22;42923;53.220;6.528;2022-07-29T02:49:37;14.90;99.90
52965;DHT22;42923;53.220;6.528;2022-07-29T02:52:12;14.90;99.90
52965;DHT22;42923;53.220;6.528;2022-07-29T02:54:46;14.90;99.90
52965;DHT22;42923;53.220;6.528;2022-07-29T02:57:30;14.80;99.90
52965;DHT22;42923;53.220;6.528;2022-07-29T02:59:58;14.80;99.90
52965;DHT22;42923;53.220;6.528;2022-07-29T03:02:27;14.90;99.90
52965;DHT22;42923;53.220;6.528;2022-07-29T03:04:55;14.90;99.90
52965;DHT22;42923;53.220;6.528;2022-07-29T03:07:22;15.00;99.90
52965;DHT22;42923;53.220;6.528;2022-07-29T03:09:49;14.90;99.90
52965;DHT22;42923;53.220;6.528;2022-07-29T03:12:16;14.80;99.90
52965;DHT22;42923;53.220;6.528;2022-07-29T03:14:43;14.80;99.90
52965;DHT22;42923;53.220;6.528;2022-07-29T03:17:09;14.90;99.90
52965;DHT22;42923;53.220;6.528;2022-07-29T03:19:35;14.80;99.90
52965;DHT22;42923;53.220;6.528;2022-07-29T03:22:02;14.80;99.90
52965;DHT22;42923;53.220;6.528;2022-07-29T03:24:33;14.80;99.90
52965;DHT22;42923;53.220;6.528;2022-07-29T03:27:00;14.70;99.90
52965;DHT22;42923;53.220;6.528;2022-07-29T03:29:27;14.70;99.90
52965;DHT22;42923;53.220;6.528;2022-07-29T03:31:53;14.70;99.90
52965;DHT22;42923;53.220;6.528;2022-07-29T03:34:19;14.70;99.90
52965;DHT22;42923;53.220;6.528;2022-07-29T03:36:45;14.70;99.90
52965;DHT22;42923;53.220;6.528;2022-07-29T03:39:18;14.70;99.90
52965;DHT22;42923;53.220;6.528;2022-07-29T03:41:47;14.80;99.90
52965;DHT22;42923;53.220;6.528;2022-07-29T03:44:15;14.70;99.90
52965;DHT22;42923;53.220;6.528;2022-07-29T03:46:43;14.70;99.90
52965;DHT22;42923;53.220;6.528;2022-07-29T03:49:11;14.70;99.90
52965;DHT22;42923;53.220;6.528;2022-07-29T03:51:37;14.70;99.90
52965;DHT22;42923;53.220;6.528;2022-07-29T03:54:04;14.80;99.90
52965;DHT22;42923;53.220;6.528;2022-07-29T03:56:32;14.70;99.90
52965;DHT22;42923;53.220;6.528;2022-07-29T03:59:01;14.70;99.90
52965;DHT22;42923;53.220;6.528;2022-07-29T04:01:28;14.90;99.90
52965;DHT22;42923;53.220;6.528;2022-07-29T04:03:53;14.70;99.90
52965;DHT22;42923;53.220;6.528;2022-07-29T04:06:19;14.70;99.90
52965;DHT22;42923;53.220;6.528;2022-07-29T04:08:45;14.70;99.90
52965;DHT22;42923;53.220;6.528;2022-07-29T04:11:10;14.70;99.90
52965;DHT22;42923;53.220;6.528;2022-07-29T04:13:36;14.70;99.90
52965;DHT22;42923;53.220;6.528;2022-07-29T04:16:02;14.70;99.90
52965;DHT22;42923;53.220;6.528;2022-07-29T04:18:28;14.70;99.90
52965;DHT22;42923;53.220;6.528;2022-07-29T04:20:53;14.70;99.90
52965;DHT22;42923;53.220;6.528;2022-07-29T04:23:19;14.70;99.90
52965;DHT22;42923;53.220;6.528;2022-07-29T04:25:45;14.80;99.90
52965;DHT22;42923;53.220;6.528;2022-07-29T04:28:10;14.80;99.90
52965;DHT22;42923;53.220;6.528;2022-07-29T04:30:37;14.80;99.90
52965;DHT22;42923;53.220;6.528;2022-07-29T04:33:05;14.80;99.90
52965;DHT22;42923;53.220;6.528;2022-07-29T04:35:34;14.90;99.90
52965;DHT22;42923;53.220;6.528;2022-07-29T04:38:00;14.80;99.90
52965;DHT22;42923;53.220;6.528;2022-07-29T04:40:26;14.80;99.90
52965;DHT22;42923;53.220;6.528;2022-07-29T04:42:51;14.90;99.90
52965;DHT22;42923;53.220;6.528;2022-07-29T04:45:17;14.90;99.90
52965;DHT22;42923;53.220;6.528;2022-07-29T04:47:43;14.90;99.90
52965;DHT22;42923;53.220;6.528;2022-07-29T04:50:09;15.00;99.90
52965;DHT22;42923;53.220;6.528;2022-07-29T04:52:35;15.00;99.90
52965;DHT22;42923;53.220;6.528;2022-07-29T04:55:01;15.00;99.90
52965;DHT22;42923;53.220;6.528;2022-07-29T04:57:26;15.00;99.90
52965;DHT22;42923;53.220;6.528;2022-07-29T04:59:52;15.10;99.90
52965;DHT22;42923;53.220;6.528;2022-07-29T05:02:18;15.10;99.90
52965;DHT22;42923;53.220;6.528;2022-07-29T05:04:44;15.10;99.90
52965;DHT22;42923;53.220;6.528;2022-07-29T05:07:09;15.10;99.90
52965;DHT22;42923;53.220;6.528;2022-07-29T05:09:35;15.20;99.90
52965;DHT22;42923;53.220;6.528;2022-07-29T05:12:01;15.20;99.90
52965;DHT22;42923;53.220;6.528;2022-07-29T05:14:27;15.20;99.90
52965;DHT22;42923;53.220;6.528;2022-07-29T05:16:53;15.20;99.90
52965;DHT22;42923;53.220;6.528;2022-07-29T05:19:22;15.30;99.90
52965;DHT22;42923;53.220;6.528;2022-07-29T05:21:48;15.30;99.90
52965;DHT22;42923;53.220;6.528;2022-07-29T05:24:13;15.40;99.90
52965;DHT22;42923;53.220;6.528;2022-07-29T05:26:39;15.40;99.90
52965;DHT22;42923;53.220;6.528;2022-07-29T05:29:05;15.40;99.90
52965;DHT22;42923;53.220;6.528;2022-07-29T05:31:31;15.40;99.90
52965;DHT22;42923;53.220;6.528;2022-07-29T05:33:57;15.50;99.90
52965;DHT22;42923;53.220;6.528;2022-07-29T05:36:23;15.60;99.90
52965;DHT22;42923;53.220;6.528;2022-07-29T05:38:48;15.90;99.90
52965;DHT22;42923;53.220;6.528;2022-07-29T05:41:14;15.70;99.90
52965;DHT22;42923;53.220;6.528;2022-07-29T05:43:40;15.80;99.90
52965;DHT22;42923;53.220;6.528;2022-07-29T05:46:05;16.00;99.90
52965;DHT22;42923;53.220;6.528;2022-07-29T05:48:31;15.80;99.90
52965;DHT22;42923;53.220;6.528;2022-07-29T05:50:58;15.90;99.90
52965;DHT22;42923;53.220;6.528;2022-07-29T05:53:24;15.90;99.90
52965;DHT22;42923;53.220;6.528;2022-07-29T05:55:50;16.00;99.90
52965;DHT22;42923;53.220;6.528;2022-07-29T05:58:17;16.00;99.90
52965;DHT22;42923;53.220;6.528;2022-07-29T06:00:43;16.10;99.90
52965;DHT22;42923;53.220;6.528;2022-07-29T06:03:08;16.10;99.90
52965;DHT22;42923;53.220;6.528;2022-07-29T06:05:34;16.20;99.90
52965;DHT22;42923;53.220;6.528;2022-07-29T06:08:00;16.20;99.90
52965;DHT22;42923;53.220;6.528;2022-07-29T06:10:25;16.30;99.90
52965;DHT22;42923;53.220;6.528;2022-07-29T06:12:52;16.40;99.90
52965;DHT22;42923;53.220;6.528;2022-07-29T06:15:18;16.40;99.90
52965;DHT22;42923;53.220;6.528;2022-07-29T06:17:44;16.40;99.90
52965;DHT22;42923;53.220;6.528;2022-07-29T06:20:10;16.50;99.90
52965;DHT22;42923;53.220;6.528;2022-07-29T06:22:36;16.60;99.90
52965;DHT22;42923;53.220;6.528;2022-07-29T06:25:02;16.60;99.90
52965;DHT22;42923;53.220;6.528;2022-07-29T06:27:29;16.80;99.90
52965;DHT22;42923;53.220;6.528;2022-07-29T06:29:56;16.80;99.90
52965;DHT22;42923;53.220;6.528;2022-07-29T06:32:21;17.00;99.90
52965;DHT22;42923;53.220;6.528;2022-07-29T06:34:47;17.10;99.90
52965;DHT22;42923;53.220;6.528;2022-07-29T06:37:13;17.20;99.90
52965;DHT22;42923;53.220;6.528;2022-07-29T06:39:39;17.30;99.90
52965;DHT22;42923;53.220;6.528;2022-07-29T06:42:05;17.40;99.90
52965;DHT22;42923;53.220;6.528;2022-07-29T06:44:31;17.50;99.90
52965;DHT22;42923;53.220;6.528;2022-07-29T06:47:00;17.90;99.90
52965;DHT22;42923;53.220;6.528;2022-07-29T06:49:25;17.80;99.90
52965;DHT22;42923;53.220;6.528;2022-07-29T06:51:53;17.80;99.90
52965;DHT22;42923;53.220;6.528;2022-07-29T06:54:19;17.90;99.90
52965;DHT22;42923;53.220;6.528;2022-07-29T06:56:45;18.00;99.90
52965;DHT22;42923;53.220;6.528;2022-07-29T06:59:12;18.10;99.90
52965;DHT22;42923;53.220;6.528;2022-07-29T07:01:42;18.20;99.90
52965;DHT22;42923;53.220;6.528;2022-07-29T07:04:09;18.30;99.90
52965;DHT22;42923;53.220;6.528;2022-07-29T07:06:35;18.40;99.90
52965;DHT22;42923;53.220;6.528;2022-07-29T07:09:01;18.50;99.90
52965;DHT22;42923;53.220;6.528;2022-07-29T07:11:27;18.60;99.90
52965;DHT22;42923;53.220;6.528;2022-07-29T07:13:53;18.60;99.90
52965;DHT22;42923;53.220;6.528;2022-07-29T07:16:19;18.80;99.90
52965;DHT22;42923;53.220;6.528;2022-07-29T07:18:44;18.80;99.90
52965;DHT22;42923;53.220;6.528;2022-07-29T07:21:11;18.90;99.90
52965;DHT22;42923;53.220;6.528;2022-07-29T07:23:37;18.90;99.90
52965;DHT22;42923;53.220;6.528;2022-07-29T07:26:03;19.00;99.90
52965;DHT22;42923;53.220;6.528;2022-07-29T07:28:29;19.10;99.90
52965;DHT22;42923;53.220;6.528;2022-07-29T07:30:54;19.10;99.90
52965;DHT22;42923;53.220;6.528;2022-07-29T07:33:20;19.10;99.90
52965;DHT22;42923;53.220;6.528;2022-07-29T07:35:46;19.10;99.90
52965;DHT22;42923;53.220;6.528;2022-07-29T07:38:12;19.10;99.90
52965;DHT22;42923;53.220;6.528;2022-07-29T07:40:38;19.20;99.90
52965;DHT22;42923;53.220;6.528;2022-07-29T07:43:04;19.30;99.90
52965;DHT22;42923;53.220;6.528;2022-07-29T07:45:30;19.30;99.90
52965;DHT22;42923;53.220;6.528;2022-07-29T07:47:58;19.30;99.90
52965;DHT22;42923;53.220;6.528;2022-07-29T07:50:24;19.30;99.90
52965;DHT22;42923;53.220;6.528;2022-07-29T07:52:51;19.30;99.90
52965;DHT22;42923;53.220;6.528;2022-07-29T07:55:18;19.40;99.90
52965;DHT22;42923;53.220;6.528;2022-07-29T07:57:44;19.40;99.90
52965;DHT22;42923;53.220;6.528;2022-07-29T08:00:11;19.50;99.90
52965;DHT22;42923;53.220;6.528;2022-07-29T08:02:40;19.60;99.90
52965;DHT22;42923;53.220;6.528;2022-07-29T08:05:08;19.70;99.90
52965;DHT22;42923;53.220;6.528;2022-07-29T08:07:34;19.70;99.90
52965;DHT22;42923;53.220;6.528;2022-07-29T08:10:00;19.80;99.90
52965;DHT22;42923;53.220;6.528;2022-07-29T08:12:25;19.80;99.90
52965;DHT22;42923;53.220;6.528;2022-07-29T08:14:51;19.90;99.90
52965;DHT22;42923;53.220;6.528;2022-07-29T08:17:17;19.90;99.90
52965;DHT22;42923;53.220;6.528;2022-07-29T08:19:42;19.90;99.90
52965;DHT22;42923;53.220;6.528;2022-07-29T08:22:08;20.00;99.90
52965;DHT22;42923;53.220;6.528;2022-07-29T08:24:34;20.10;99.90
52965;DHT22;42923;53.220;6.528;2022-07-29T08:27:12;20.10;99.90
52965;DHT22;42923;53.220;6.528;2022-07-29T08:29:39;20.10;99.90
52965;DHT22;42923;53.220;6.528;2022-07-29T08:32:05;20.20;99.90
52965;DHT22;42923;53.220;6.528;2022-07-29T08:34:31;20.20;99.90
52965;DHT22;42923;53.220;6.528;2022-07-29T08:36:57;20.30;99.90
52965;DHT22;42923;53.220;6.528;2022-07-29T08:39:23;20.40;99.90
52965;DHT22;42923;53.220;6.528;2022-07-29T08:41:50;20.50;99.90
52965;DHT22;42923;53.220;6.528;2022-07-29T08:44:17;20.60;99.90
52965;DHT22;42923;53.220;6.528;2022-07-29T08:46:44;20.80;99.90
52965;DHT22;42923;53.220;6.528;2022-07-29T08:49:10;20.90;99.90
52965;DHT22;42923;53.220;6.528;2022-07-29T08:51:36;21.00;99.90
52965;DHT22;42923;53.220;6.528;2022-07-29T08:54:05;21.10;99.90
52965;DHT22;42923;53.220;6.528;2022-07-29T08:56:32;21.10;99.90
52965;DHT22;42923;53.220;6.528;2022-07-29T08:58:59;21.10;99.90
52965;DHT22;42923;53.220;6.528;2022-07-29T09:01:29;21.20;99.90
52965;DHT22;42923;53.220;6.528;2022-07-29T09:03:57;21.30;99.90
52965;DHT22;42923;53.220;6.528;2022-07-29T09:06:25;21.30;99.90
52965;DHT22;42923;53.220;6.528;2022-07-29T09:08:55;21.40;99.90
52965;DHT22;42923;53.220;6.528;2022-07-29T09:11:24;21.50;99.90
52965;DHT22;42923;53.220;6.528;2022-07-29T09:13:49;21.50;99.90
52965;DHT22;42923;53.220;6.528;2022-07-29T09:16:15;21.60;99.90
52965;DHT22;42923;53.220;6.528;2022-07-29T09:18:45;21.60;99.90
52965;DHT22;42923;53.220;6.528;2022-07-29T09:21:17;21.60;99.90
52965;DHT22;42923;53.220;6.528;2022-07-29T09:26:34;21.90;99.90
52965;DHT22;42923;53.220;6.528;2022-07-29T09:29:01;22.00;99.90
52965;DHT22;42923;53.220;6.528;2022-07-29T09:31:34;22.20;99.90
52965;DHT22;42923;53.220;6.528;2022-07-29T09:34:00;22.20;99.90
52965;DHT22;42923;53.220;6.528;2022-07-29T09:36:26;22.20;99.90
52965;DHT22;42923;53.220;6.528;2022-07-29T09:39:02;22.20;99.90
52965;DHT22;42923;53.220;6.528;2022-07-29T09:41:29;22.10;99.90
52965;DHT22;42923;53.220;6.528;2022-07-29T09:43:59;22.00;99.90
52965;DHT22;42923;53.220;6.528;2022-07-29T09:46:25;22.10;99.90
52965;DHT22;42923;53.220;6.528;2022-07-29T09:49:11;22.10;99.90
52965;DHT22;42923;53.220;6.528;2022-07-29T09:51:38;22.20;99.90
52965;DHT22;42923;53.220;6.528;2022-07-29T09:54:24;22.10;99.90
52965;DHT22;42923;53.220;6.528;2022-07-29T09:56:51;22.10;99.90
52965;DHT22;42923;53.220;6.528;2022-07-29T09:59:17;22.10;99.90
52965;DHT22;42923;53.220;6.528;2022-07-29T10:01:43;22.10;99.90
52965;DHT22;42923;53.220;6.528;2022-07-29T10:04:09;22.10;99.90
52965;DHT22;42923;53.220;6.528;2022-07-29T10:06:35;22.10;99.90
52965;DHT22;42923;53.220;6.528;2022-07-29T10:09:08;22.00;99.90
52965;DHT22;42923;53.220;6.528;2022-07-29T10:11:34;21.90;99.90
52965;DHT22;42923;53.220;6.528;2022-07-29T10:14:02;21.90;99.90
52965;DHT22;42923;53.220;6.528;2022-07-29T10:16:29;21.80;99.90
52965;DHT22;42923;53.220;6.528;2022-07-29T10:19:01;21.80;99.90
52965;DHT22;42923;53.220;6.528;2022-07-29T10:21:27;21.80;99.90
52965;DHT22;42923;53.220;6.528;2022-07-29T10:23:53;21.90;99.90
52965;DHT22;42923;53.220;6.528;2022-07-29T10:26:19;21.80;99.90
52965;DHT22;42923;53.220;6.528;2022-07-29T10:28:45;21.80;99.90
52965;DHT22;42923;53.220;6.528;2022-07-29T10:31:18;21.90;99.90
52965;DHT22;42923;53.220;6.528;2022-07-29T10:34:04;22.00;99.90
52965;DHT22;42923;53.220;6.528;2022-07-29T10:36:54;22.20;99.90
52965;DHT22;42923;53.220;6.528;2022-07-29T10:42:21;22.60;99.90
52965;DHT22;42923;53.220;6.528;2022-07-29T10:44:48;22.80;99.90
52965;DHT22;42923;53.220;6.528;2022-07-29T10:47:24;22.90;99.90
52965;DHT22;42923;53.220;6.528;2022-07-29T10:50:04;22.90;99.90
52965;DHT22;42923;53.220;6.528;2022-07-29T10:55:38;22.80;99.90
52965;DHT22;42923;53.220;6.528;2022-07-29T10:58:20;22.80;99.90
52965;DHT22;42923;53.220;6.528;2022-07-29T11:00:51;22.80;99.90
52965;DHT22;42923;53.220;6.528;2022-07-29T11:03:46;22.70;99.90
52965;DHT22;42923;53.220;6.528;2022-07-29T11:06:12;22.60;99.90
52965;DHT22;42923;53.220;6.528;2022-07-29T11:08:38;22.50;99.90
52965;DHT22;42923;53.220;6.528;2022-07-29T11:16:16;22.10;99.90
52965;DHT22;42923;53.220;6.528;2022-07-29T11:21:37;21.80;99.90
52965;DHT22;42923;53.220;6.528;2022-07-29T11:24:25;21.60;99.90
52965;DHT22;42923;53.220;6.528;2022-07-29T11:27:09;21.50;99.90
52965;DHT22;42923;53.220;6.528;2022-07-29T11:29:40;21.40;99.90
52965;DHT22;42923;53.220;6.528;2022-07-29T11:32:14;21.50;99.90
52965;DHT22;42923;53.220;6.528;2022-07-29T11:34:41;21.60;99.90
52965;DHT22;42923;53.220;6.528;2022-07-29T11:39:44;22.00;99.90
52965;DHT22;42923;53.220;6.528;2022-07-29T11:45:01;22.40;99.90
52965;DHT22;42923;53.220;6.528;2022-07-29T11:47:28;22.70;99.90
52965;DHT22;42923;53.220;6.528;2022-07-29T11:49:59;22.90;99.90
52965;DHT22;42923;53.220;6.528;2022-07-29T11:52:43;23.10;99.90
52965;DHT22;42923;53.220;6.528;2022-07-29T11:55:16;23.30;99.90
52965;DHT22;42923;53.220;6.528;2022-07-29T11:57:56;23.70;99.90
52965;DHT22;42923;53.220;6.528;2022-07-29T12:00:32;24.00;99.90
52965;DHT22;42923;53.220;6.528;2022-07-29T12:03:00;24.20;99.90
52965;DHT22;42923;53.220;6.528;2022-07-29T12:05:35;24.60;99.90
52965;DHT22;42923;53.220;6.528;2022-07-29T12:10:33;25.30;99.90
52965;DHT22;42923;53.220;6.528;2022-07-29T12:12:59;25.60;99.90
52965;DHT22;42923;53.220;6.528;2022-07-29T12:15:25;25.80;99.90
52965;DHT22;42923;53.220;6.528;2022-07-29T12:17:51;26.10;99.90
52965;DHT22;42923;53.220;6.528;2022-07-29T12:20:25;26.40;99.90
52965;DHT22;42923;53.220;6.528;2022-07-29T12:22:52;26.60;99.90
52965;DHT22;42923;53.220;6.528;2022-07-29T12:25:20;26.70;95.60
52965;DHT22;42923;53.220;6.528;2022-07-29T12:27:46;26.60;93.10
52965;DHT22;42923;53.220;6.528;2022-07-29T12:30:14;26.50;94.10
52965;DHT22;42923;53.220;6.528;2022-07-29T12:32:45;26.60;96.20
52965;DHT22;42923;53.220;6.528;2022-07-29T12:35:16;26.70;93.90
52965;DHT22;42923;53.220;6.528;2022-07-29T12:37:44;26.70;93.10
52965;DHT22;42923;53.220;6.528;2022-07-29T12:40:13;26.60;93.50
52965;DHT22;42923;53.220;6.528;2022-07-29T12:42:40;26.60;93.20
52965;DHT22;42923;53.220;6.528;2022-07-29T12:45:06;26.60;92.70
52965;DHT22;42923;53.220;6.528;2022-07-29T12:47:33;26.60;92.30
52965;DHT22;42923;53.220;6.528;2022-07-29T12:50:15;26.80;91.80
52965;DHT22;42923;53.220;6.528;2022-07-29T12:52:45;26.90;91.30
52965;DHT22;42923;53.220;6.528;2022-07-29T12:55:11;26.90;91.50
52965;DHT22;42923;53.220;6.528;2022-07-29T12:57:47;26.80;90.00
52965;DHT22;42923;53.220;6.528;2022-07-29T13:00:14;26.70;88.80
52965;DHT22;42923;53.220;6.528;2022-07-29T13:02:41;26.70;86.80
52965;DHT22;42923;53.220;6.528;2022-07-29T13:05:09;26.80;85.40
52965;DHT22;42923;53.220;6.528;2022-07-29T13:07:36;26.90;84.90
52965;DHT22;42923;53.220;6.528;2022-07-29T13:10:15;27.20;88.00
52965;DHT22;42923;53.220;6.528;2022-07-29T13:13:04;27.50;85.50
52965;DHT22;42923;53.220;6.528;2022-07-29T13:15:31;27.80;85.10
52965;DHT22;42923;53.220;6.528;2022-07-29T13:17:57;28.30;85.00
52965;DHT22;42923;53.220;6.528;2022-07-29T13:20:26;28.60;81.30
52965;DHT22;42923;53.220;6.528;2022-07-29T13:22:58;28.80;76.40
52965;DHT22;42923;53.220;6.528;2022-07-29T13:25:32;28.70;74.00
52965;DHT22;42923;53.220;6.528;2022-07-29T13:27:59;28.80;74.20
52965;DHT22;42923;53.220;6.528;2022-07-29T13:30:25;29.20;72.70
52965;DHT22;42923;53.220;6.528;2022-07-29T13:32:52;29.80;71.80
52965;DHT22;42923;53.220;6.528;2022-07-29T13:35:18;30.40;70.70
52965;DHT22;42923;53.220;6.528;2022-07-29T13:37:44;30.90;70.00
52965;DHT22;42923;53.220;6.528;2022-07-29T13:40:11;31.40;68.40
52965;DHT22;42923;53.220;6.528;2022-07-29T13:42:37;31.80;67.30
52965;DHT22;42923;53.220;6.528;2022-07-29T13:45:03;32.10;65.60
52965;DHT22;42923;53.220;6.528;2022-07-29T13:47:30;32.40;63.80
52965;DHT22;42923;53.220;6.528;2022-07-29T13:49:56;32.50;61.90
52965;DHT22;42923;53.220;6.528;2022-07-29T13:52:21;32.50;60.40
52965;DHT22;42923;53.220;6.528;2022-07-29T13:54:47;32.50;60.20
52965;DHT22;42923;53.220;6.528;2022-07-29T13:57:14;32.50;60.30
52965;DHT22;42923;53.220;6.528;2022-07-29T13:59:40;32.60;60.40
52965;DHT22;42923;53.220;6.528;2022-07-29T14:02:07;32.60;60.00
52965;DHT22;42923;53.220;6.528;2022-07-29T14:04:34;32.70;58.40
52965;DHT22;42923;53.220;6.528;2022-07-29T14:07:00;32.60;58.30
52965;DHT22;42923;53.220;6.528;2022-07-29T14:09:26;32.70;58.40
52965;DHT22;42923;53.220;6.528;2022-07-29T14:11:52;32.60;59.30
52965;DHT22;42923;53.220;6.528;2022-07-29T14:14:19;32.70;59.30
52965;DHT22;42923;53.220;6.528;2022-07-29T14:16:45;32.90;58.50
52965;DHT22;42923;53.220;6.528;2022-07-29T14:19:11;33.10;58.90
52965;DHT22;42923;53.220;6.528;2022-07-29T14:21:37;33.40;58.60
52965;DHT22;42923;53.220;6.528;2022-07-29T14:24:04;33.60;57.30
52965;DHT22;42923;53.220;6.528;2022-07-29T14:26:30;33.60;57.50
52965;DHT22;42923;53.220;6.528;2022-07-29T14:28:55;33.80;56.40
52965;DHT22;42923;53.220;6.528;2022-07-29T14:31:21;33.80;56.50
52965;DHT22;42923;53.220;6.528;2022-07-29T14:33:47;33.70;55.10
52965;DHT22;42923;53.220;6.528;2022-07-29T14:36:13;33.80;56.10
52965;DHT22;42923;53.220;6.528;2022-07-29T14:38:39;33.80;54.60
52965;DHT22;42923;53.220;6.528;2022-07-29T14:41:07;33.80;54.30
52965;DHT22;42923;53.220;6.528;2022-07-29T14:43:33;33.80;54.00
52965;DHT22;42923;53.220;6.528;2022-07-29T14:46:00;33.60;54.20
52965;DHT22;42923;53.220;6.528;2022-07-29T14:48:26;33.50;53.80
52965;DHT22;42923;53.220;6.528;2022-07-29T14:50:52;33.50;53.90
52965;DHT22;42923;53.220;6.528;2022-07-29T14:53:18;33.50;54.40
52965;DHT22;42923;53.220;6.528;2022-07-29T14:55:44;33.50;54.10
52965;DHT22;42923;53.220;6.528;2022-07-29T14:58:10;33.40;53.80
52965;DHT22;42923;53.220;6.528;2022-07-29T15:00:36;33.50;54.60
52965;DHT22;42923;53.220;6.528;2022-07-29T15:03:03;33.50;53.80
52965;DHT22;42923;53.220;6.528;2022-07-29T15:05:30;33.40;54.00
52965;DHT22;42923;53.220;6.528;2022-07-29T15:07:56;33.50;54.20
52965;DHT22;42923;53.220;6.528;2022-07-29T15:10:22;33.60;53.70
52965;DHT22;42923;53.220;6.528;2022-07-29T15:12:48;33.60;53.90
52965;DHT22;42923;53.220;6.528;2022-07-29T15:15:13;33.50;53.20
52965;DHT22;42923;53.220;6.528;2022-07-29T15:17:39;33.40;53.30
52965;DHT22;42923;53.220;6.528;2022-07-29T15:20:06;33.30;53.80
52965;DHT22;42923;53.220;6.528;2022-07-29T15:22:32;33.20;53.90
52965;DHT22;42923;53.220;6.528;2022-07-29T15:24:57;33.10;54.60
52965;DHT22;42923;53.220;6.528;2022-07-29T15:27:23;33.10;54.70
52965;DHT22;42923;53.220;6.528;2022-07-29T15:29:49;33.00;54.50
52965;DHT22;42923;53.220;6.528;2022-07-29T15:32:14;33.00;54.00
52965;DHT22;42923;53.220;6.528;2022-07-29T15:34:40;33.10;54.40
52965;DHT22;42923;53.220;6.528;2022-07-29T15:37:06;33.10;53.60
52965;DHT22;42923;53.220;6.528;2022-07-29T15:39:32;33.00;54.00
52965;DHT22;42923;53.220;6.528;2022-07-29T15:41:58;32.90;53.70
52965;DHT22;42923;53.220;6.528;2022-07-29T15:44:26;32.80;53.10
52965;DHT22;42923;53.220;6.528;2022-07-29T15:46:52;32.30;53.70
52965;DHT22;42923;53.220;6.528;2022-07-29T15:49:37;31.60;53.90
52965;DHT22;42923;53.220;6.528;2022-07-29T15:52:06;30.80;55.30
52965;DHT22;42923;53.220;6.528;2022-07-29T15:54:34;30.10;55.60
52965;DHT22;42923;53.220;6.528;2022-07-29T15:57:00;29.60;55.80
52965;DHT22;42923;53.220;6.528;2022-07-29T15:59:26;29.00;56.60
52965;DHT22;42923;53.220;6.528;2022-07-29T16:01:52;28.50;57.50
52965;DHT22;42923;53.220;6.528;2022-07-29T16:04:18;28.10;57.20
52965;DHT22;42923;53.220;6.528;2022-07-29T16:06:45;27.80;57.50
52965;DHT22;42923;53.220;6.528;2022-07-29T16:09:14;27.40;58.20